createdAt,value
2017-11-30T00:02:10.601Z,91.26
2017-11-30T00:04:38.060Z,91.53
2017-11-30T00:07:05.569Z,91.59
2017-11-30T00:09:33.044Z,91.71
2017-11-30T00:12:00.595Z,91.62
2017-11-30T00:14:28.075Z,91.48
2017-11-30T00:16:55.549Z,91.63
2017-11-30T00:19:23.033Z,91.73
2017-11-30T00:21:50.585Z,91.52
2017-11-30T00:24:18.076Z,91.27
2017-11-30T00:26:45.544Z,91.19
2017-11-30T00:29:13.045Z,91.20
2017-11-30T00:31:40.507Z,91.30
2017-11-30T00:34:07.993Z,91.38
2017-11-30T00:36:35.504Z,91.31
2017-11-30T00:39:02.988Z,91.25
2017-11-30T00:41:30.455Z,91.37
2017-11-30T00:44:09.723Z,91.45
2017-11-30T00:46:37.178Z,91.15
2017-11-30T00:49:04.645Z,91.16
2017-11-30T00:51:32.154Z,90.94
2017-11-30T00:53:59.658Z,90.92
2017-11-30T00:56:27.139Z,91.03
2017-11-30T00:58:54.612Z,90.98
2017-11-30T01:01:22.096Z,90.98
2017-11-30T01:03:49.560Z,90.95
2017-11-30T01:06:17.044Z,90.98
2017-11-30T01:08:44.508Z,91.04
2017-11-30T01:11:11.969Z,91.03
2017-11-30T01:13:40.001Z,91.22
2017-11-30T01:16:07.462Z,91.32
2017-11-30T01:18:34.945Z,91.28
2017-11-30T01:21:03.442Z,91.31
2017-11-30T01:23:30.930Z,91.17
2017-11-30T01:25:58.448Z,91.20
2017-11-30T01:28:25.952Z,91.35
2017-11-30T01:30:53.969Z,91.66
2017-11-30T01:33:21.531Z,91.86
2017-11-30T01:35:48.996Z,91.83
2017-11-30T01:38:16.583Z,91.74
2017-11-30T01:40:44.094Z,91.76
2017-11-30T01:43:11.580Z,91.68
2017-11-30T01:45:42.956Z,91.84
2017-11-30T01:48:10.445Z,91.90
2017-11-30T01:50:37.897Z,91.60
2017-11-30T01:53:05.381Z,91.77
2017-11-30T01:55:32.857Z,91.92
2017-11-30T01:58:01.185Z,92.19
2017-11-30T02:00:29.812Z,92.11
2017-11-30T02:02:57.283Z,92.24
2017-11-30T02:05:24.780Z,92.21
2017-11-30T02:07:52.272Z,92.19
2017-11-30T02:10:19.772Z,92.08
2017-11-30T02:12:47.232Z,92.06
2017-11-30T02:15:14.816Z,91.83
2017-11-30T02:17:42.271Z,91.90
2017-11-30T02:20:09.820Z,92.31
2017-11-30T02:22:37.303Z,92.22
2017-11-30T02:25:04.782Z,92.16
2017-11-30T02:27:32.279Z,91.69
2017-11-30T02:29:59.737Z,91.60
2017-11-30T02:32:27.224Z,91.89
2017-11-30T02:34:54.681Z,91.78
2017-11-30T02:37:22.236Z,91.84
2017-11-30T02:39:49.708Z,92.10
2017-11-30T02:42:17.207Z,92.44
2017-11-30T02:44:44.685Z,92.42
2017-11-30T02:47:12.158Z,92.15
2017-11-30T02:49:39.602Z,92.24
2017-11-30T02:52:07.097Z,92.42
2017-11-30T02:54:34.581Z,92.74
2017-11-30T02:57:02.066Z,92.64
2017-11-30T02:59:29.558Z,92.61
2017-11-30T03:01:57.020Z,92.63
2017-11-30T03:04:24.468Z,92.50
2017-11-30T03:06:52.263Z,92.52
2017-11-30T03:09:19.758Z,92.50
2017-11-30T03:11:47.227Z,92.28
2017-11-30T03:14:14.754Z,92.48
2017-11-30T03:16:42.205Z,92.62
2017-11-30T03:19:09.690Z,92.53
2017-11-30T03:21:37.173Z,92.22
2017-11-30T03:24:05.119Z,92.53
2017-11-30T03:26:32.583Z,92.76
2017-11-30T03:29:00.048Z,92.70
2017-11-30T03:31:27.527Z,92.88
2017-11-30T03:33:54.984Z,92.72
2017-11-30T03:36:22.456Z,92.53
2017-11-30T03:38:49.925Z,92.94
2017-11-30T03:41:17.387Z,93.19
2017-11-30T03:43:44.887Z,93.08
2017-11-30T03:46:12.354Z,93.08
2017-11-30T03:48:39.829Z,93.29
2017-11-30T03:51:07.321Z,93.21
2017-11-30T03:53:34.789Z,92.89
2017-11-30T03:56:02.291Z,93.10
2017-11-30T03:58:29.752Z,93.17
2017-11-30T04:00:57.222Z,93.59
2017-11-30T04:03:24.714Z,93.52
2017-11-30T04:05:52.170Z,93.45
2017-11-30T04:08:19.638Z,93.38
2017-11-30T04:10:47.136Z,93.10
2017-11-30T04:13:16.005Z,93.24
2017-11-30T04:15:43.599Z,93.19
2017-11-30T04:18:11.558Z,92.98
2017-11-30T04:20:39.067Z,92.88
2017-11-30T04:23:06.546Z,93.08
2017-11-30T04:25:34.009Z,93.64
2017-11-30T04:28:01.461Z,93.69
2017-11-30T04:30:29.097Z,93.85
2017-11-30T04:32:56.548Z,93.82
2017-11-30T04:35:24.012Z,93.80
2017-11-30T04:40:25.196Z,93.91
2017-11-30T04:42:52.689Z,93.69
2017-11-30T04:45:20.146Z,92.97
2017-11-30T04:47:47.610Z,93.35
2017-11-30T04:50:15.151Z,93.52
2017-11-30T04:52:42.781Z,93.80
2017-11-30T04:55:10.234Z,93.58
2017-11-30T04:57:37.714Z,93.75
2017-11-30T05:00:05.184Z,93.88
2017-11-30T05:02:32.643Z,93.79
2017-11-30T05:05:00.661Z,93.75
2017-11-30T05:07:28.123Z,93.85
2017-11-30T05:09:55.589Z,93.91
2017-11-30T05:12:23.130Z,94.12
2017-11-30T05:14:50.592Z,94.10
2017-11-30T05:17:18.042Z,93.98
2017-11-30T05:19:45.529Z,93.76
2017-11-30T05:22:13.010Z,94.07
2017-11-30T05:24:40.486Z,94.04
2017-11-30T05:27:07.983Z,94.31
2017-11-30T05:29:35.444Z,94.15
2017-11-30T05:32:02.925Z,94.08
2017-11-30T05:34:30.410Z,93.83
2017-11-30T05:36:57.938Z,93.80
2017-11-30T05:39:25.414Z,93.75
2017-11-30T05:41:52.869Z,94.04
2017-11-30T05:44:20.346Z,94.33
2017-11-30T05:46:47.829Z,94.31
2017-11-30T05:49:15.325Z,94.33
2017-11-30T05:51:42.788Z,94.25
2017-11-30T05:54:10.273Z,94.22
2017-11-30T05:56:37.750Z,94.09
2017-11-30T05:59:05.212Z,94.44
2017-11-30T06:01:32.670Z,94.50
2017-11-30T06:04:00.152Z,94.49
2017-11-30T06:06:27.641Z,94.46
2017-11-30T06:08:55.156Z,94.38
2017-11-30T06:11:22.634Z,94.43
2017-11-30T06:13:50.100Z,94.27
2017-11-30T06:16:17.867Z,94.34
2017-11-30T06:18:48.505Z,94.24
2017-11-30T06:21:16.692Z,93.79
2017-11-30T06:23:44.170Z,93.65
2017-11-30T06:26:11.642Z,93.69
2017-11-30T06:28:40.225Z,93.13
2017-11-30T06:31:07.744Z,93.21
2017-11-30T06:33:35.204Z,93.31
2017-11-30T06:36:02.688Z,93.50
2017-11-30T06:38:30.185Z,93.78
2017-11-30T06:40:57.649Z,93.81
2017-11-30T06:43:25.129Z,93.32
2017-11-30T06:45:52.597Z,92.85
2017-11-30T06:48:20.067Z,92.49
2017-11-30T06:50:47.553Z,92.72
2017-11-30T06:53:15.024Z,92.80
2017-11-30T06:55:42.501Z,93.16
2017-11-30T06:58:09.980Z,92.97
2017-11-30T07:00:37.484Z,92.58
2017-11-30T07:03:05.047Z,92.54
2017-11-30T07:05:32.537Z,92.80
2017-11-30T07:07:59.985Z,92.46
2017-11-30T07:10:27.463Z,92.47
2017-11-30T07:12:54.919Z,92.24
2017-11-30T07:15:22.389Z,92.20
2017-11-30T07:17:49.874Z,92.61
2017-11-30T07:20:17.545Z,92.54
2017-11-30T07:22:45.036Z,92.67
2017-11-30T07:25:12.492Z,92.64
2017-11-30T07:27:39.991Z,92.78
2017-11-30T07:30:07.469Z,92.30
2017-11-30T07:32:35.726Z,92.34
2017-11-30T07:35:03.201Z,92.54
2017-11-30T07:37:30.716Z,92.38
2017-11-30T07:39:58.226Z,92.52
2017-11-30T07:42:25.693Z,92.17
2017-11-30T07:44:53.165Z,92.35
2017-11-30T07:47:20.649Z,92.06
2017-11-30T07:49:48.100Z,92.29
2017-11-30T07:52:15.648Z,91.75
2017-11-30T07:54:43.217Z,91.13
2017-11-30T07:57:10.682Z,91.05
2017-11-30T07:59:38.173Z,91.13
2017-11-30T08:02:05.642Z,90.89
2017-11-30T08:04:33.257Z,90.58
2017-11-30T08:07:00.705Z,90.63
2017-11-30T08:09:28.141Z,90.30
2017-11-30T08:11:55.634Z,89.35
2017-11-30T08:14:23.075Z,89.60
2017-11-30T08:16:50.525Z,89.15
2017-11-30T08:19:17.984Z,88.45
2017-11-30T08:21:45.456Z,88.28
2017-11-30T08:24:12.931Z,87.01
2017-11-30T08:26:41.308Z,87.44
2017-11-30T08:29:09.286Z,87.66
2017-11-30T08:31:36.814Z,88.18
2017-11-30T08:34:04.410Z,87.76
2017-11-30T08:36:32.424Z,86.24
2017-11-30T08:38:59.909Z,86.55
2017-11-30T08:41:27.352Z,86.85
2017-11-30T08:43:54.873Z,87.20
2017-11-30T08:46:22.384Z,86.16
2017-11-30T08:48:50.120Z,86.56
2017-11-30T08:51:18.148Z,86.13
2017-11-30T08:53:45.599Z,85.70
2017-11-30T08:56:13.054Z,85.63
2017-11-30T08:58:40.514Z,85.21
2017-11-30T09:01:07.961Z,84.76
2017-11-30T09:03:35.409Z,84.17
2017-11-30T09:06:02.881Z,84.16
2017-11-30T09:08:30.322Z,83.26
2017-11-30T09:10:57.801Z,82.62
2017-11-30T09:13:25.277Z,82.50
2017-11-30T09:15:52.739Z,82.57
2017-11-30T09:18:20.184Z,83.05
2017-11-30T09:20:47.629Z,83.37
2017-11-30T09:23:15.098Z,83.19
2017-11-30T09:25:42.604Z,83.19
2017-11-30T09:28:10.084Z,82.36
2017-11-30T09:30:37.529Z,82.45
2017-11-30T09:33:04.987Z,82.92
2017-11-30T09:35:32.446Z,82.50
2017-11-30T09:37:59.927Z,83.28
2017-11-30T09:40:27.383Z,83.28
2017-11-30T09:42:54.827Z,83.18
2017-11-30T09:45:22.285Z,82.51
2017-11-30T09:47:49.750Z,82.28
2017-11-30T09:50:17.257Z,82.58
2017-11-30T09:52:44.764Z,82.97
2017-11-30T09:55:12.225Z,83.18
2017-11-30T09:57:39.675Z,82.50
2017-11-30T10:00:07.138Z,82.96
2017-11-30T10:02:35.531Z,82.64
2017-11-30T10:05:02.984Z,82.20
2017-11-30T10:07:30.461Z,81.93
2017-11-30T10:09:57.905Z,81.52
2017-11-30T10:12:25.376Z,81.74
2017-11-30T10:14:52.872Z,82.93
2017-11-30T10:17:20.318Z,82.15
2017-11-30T10:19:47.764Z,81.48
2017-11-30T10:22:15.428Z,81.61
2017-11-30T10:24:43.126Z,82.01
2017-11-30T10:27:10.608Z,81.01
2017-11-30T10:29:38.072Z,81.68
2017-11-30T10:32:05.546Z,81.20
2017-11-30T10:34:33.238Z,81.91
2017-11-30T10:37:00.695Z,81.71
2017-11-30T10:39:28.191Z,81.65
2017-11-30T10:41:55.663Z,81.29
2017-11-30T10:44:23.126Z,81.59
2017-11-30T10:46:50.577Z,80.89
2017-11-30T10:49:18.030Z,81.65
2017-11-30T10:51:45.487Z,81.16
2017-11-30T10:54:12.922Z,81.68
2017-11-30T10:56:40.409Z,82.35
2017-11-30T10:59:07.866Z,82.56
2017-11-30T11:01:35.295Z,82.57
2017-11-30T11:04:02.772Z,82.57
2017-11-30T11:06:30.290Z,82.13
2017-11-30T11:08:57.738Z,82.11
2017-11-30T11:11:25.193Z,82.38
2017-11-30T11:13:52.628Z,82.26
2017-11-30T11:16:20.062Z,82.15
2017-11-30T11:18:47.520Z,81.55
2017-11-30T11:21:15.026Z,82.14
2017-11-30T11:23:42.495Z,82.58
2017-11-30T11:26:09.954Z,83.28
2017-11-30T11:28:37.397Z,83.07
2017-11-30T11:31:04.897Z,83.80
2017-11-30T11:33:32.340Z,84.39
2017-11-30T11:35:59.788Z,84.21
2017-11-30T11:38:27.237Z,84.34
2017-11-30T11:40:54.672Z,84.18
2017-11-30T11:43:22.122Z,84.52
2017-11-30T11:45:49.577Z,84.44
2017-11-30T11:48:17.021Z,84.57
2017-11-30T11:50:44.474Z,84.78
2017-11-30T11:53:11.932Z,85.77
2017-11-30T11:55:39.383Z,85.82
2017-11-30T11:58:06.867Z,85.79
2017-11-30T12:00:34.301Z,85.33
2017-11-30T12:03:01.742Z,85.43
2017-11-30T12:05:29.210Z,84.48
2017-11-30T12:07:56.667Z,84.00
2017-11-30T12:10:24.613Z,84.40
2017-11-30T12:12:52.256Z,84.32
2017-11-30T12:15:19.697Z,85.29
2017-11-30T12:17:47.140Z,85.21
2017-11-30T12:20:14.805Z,85.35
2017-11-30T12:22:42.245Z,85.97
2017-11-30T12:25:09.745Z,85.80
2017-11-30T12:27:37.382Z,85.98
2017-11-30T12:30:04.870Z,85.29
2017-11-30T12:32:32.371Z,85.97
2017-11-30T12:34:59.855Z,86.16
2017-11-30T12:37:27.357Z,86.53
2017-11-30T12:39:54.860Z,86.73
2017-11-30T12:42:22.352Z,87.47
2017-11-30T12:44:49.851Z,87.38
2017-11-30T12:47:17.341Z,87.33
2017-11-30T12:49:44.806Z,87.23
2017-11-30T12:52:12.393Z,86.73
2017-11-30T12:54:39.817Z,87.40
2017-11-30T12:59:34.853Z,87.75
2017-11-30T13:02:02.353Z,87.71
2017-11-30T13:04:29.862Z,87.57
2017-11-30T13:06:57.322Z,87.54
2017-11-30T13:09:24.887Z,87.30
2017-11-30T13:11:52.449Z,87.95
2017-11-30T13:14:20.204Z,87.98
2017-11-30T13:16:47.655Z,87.86
2017-11-30T13:19:15.140Z,88.20
2017-11-30T13:21:42.610Z,88.37
2017-11-30T13:24:10.081Z,88.36
2017-11-30T13:26:38.901Z,88.06
2017-11-30T13:29:08.390Z,87.80
2017-11-30T13:31:36.157Z,87.68
2017-11-30T13:34:03.633Z,87.46
2017-11-30T13:36:31.201Z,87.56
2017-11-30T13:38:58.692Z,87.98
2017-11-30T13:41:26.124Z,87.84
2017-11-30T13:43:53.598Z,87.93
2017-11-30T13:46:21.076Z,87.56
2017-11-30T13:48:48.854Z,87.84
2017-11-30T13:51:17.725Z,88.04
2017-11-30T13:53:45.266Z,88.37
2017-11-30T13:56:12.733Z,88.29
2017-11-30T13:58:40.226Z,88.58
2017-11-30T14:01:07.686Z,88.57
2017-11-30T14:03:35.170Z,88.33
2017-11-30T14:06:02.642Z,88.55
2017-11-30T14:08:30.173Z,88.46
2017-11-30T14:10:57.685Z,88.33
2017-11-30T14:13:25.144Z,87.92
2017-11-30T14:15:53.224Z,88.28
2017-11-30T14:18:20.679Z,87.83
2017-11-30T14:20:48.195Z,87.93
2017-11-30T14:23:15.715Z,87.96
2017-11-30T14:25:43.230Z,87.67
2017-11-30T14:28:10.682Z,87.78
2017-11-30T14:30:38.696Z,87.67
2017-11-30T14:33:06.163Z,87.75
2017-11-30T14:35:33.705Z,87.79
2017-11-30T14:38:01.219Z,88.35
2017-11-30T14:40:28.719Z,88.29
2017-11-30T14:42:57.887Z,88.25
2017-11-30T14:45:25.502Z,88.62
2017-11-30T14:47:53.064Z,88.69
2017-11-30T14:50:20.733Z,88.60
2017-11-30T14:52:48.272Z,88.68
2017-11-30T14:55:15.821Z,88.77
2017-11-30T14:57:43.330Z,89.27
2017-11-30T15:00:10.826Z,89.72
2017-11-30T15:02:38.401Z,89.42
2017-11-30T15:05:05.902Z,89.55
2017-11-30T15:07:33.411Z,89.54
2017-11-30T15:10:01.028Z,89.64
2017-11-30T15:12:28.484Z,89.44
2017-11-30T15:14:55.992Z,89.37
2017-11-30T15:17:23.459Z,89.37
2017-11-30T15:19:51.095Z,89.22
2017-11-30T15:22:18.632Z,88.94
2017-11-30T15:24:46.943Z,89.19
2017-11-30T15:27:14.409Z,88.67
2017-11-30T15:29:41.871Z,88.91
2017-11-30T15:32:09.353Z,88.32
2017-11-30T15:34:36.843Z,87.87
2017-11-30T15:37:04.391Z,87.27
2017-11-30T15:39:31.847Z,86.89
2017-11-30T15:41:59.361Z,86.40
2017-11-30T15:44:26.844Z,85.62
2017-11-30T15:46:54.324Z,85.33
2017-11-30T15:49:21.821Z,85.15
2017-11-30T15:51:49.276Z,84.75
2017-11-30T15:54:16.807Z,84.69
2017-11-30T15:56:44.356Z,84.36
2017-11-30T15:59:11.854Z,84.39
2017-11-30T16:01:39.387Z,84.19
2017-11-30T16:04:06.904Z,84.38
2017-11-30T16:06:34.429Z,84.07
2017-11-30T16:09:01.971Z,83.68
2017-11-30T16:11:29.577Z,83.56
2017-11-30T16:13:57.117Z,83.33
2017-11-30T16:16:24.737Z,83.29
2017-11-30T16:18:52.310Z,82.88
2017-11-30T16:23:57.596Z,83.30
2017-11-30T16:26:25.080Z,82.88
2017-11-30T16:28:53.532Z,82.84
2017-11-30T16:31:23.846Z,82.89
2017-11-30T16:33:51.289Z,82.43
2017-11-30T16:36:18.800Z,83.13
2017-11-30T16:38:46.353Z,82.55
2017-11-30T16:41:13.859Z,82.56
2017-11-30T16:43:41.380Z,81.89
2017-11-30T16:46:08.943Z,81.48
2017-11-30T16:48:36.585Z,81.37
2017-11-30T16:51:04.103Z,81.05
2017-11-30T16:53:31.616Z,81.17
2017-11-30T16:55:59.086Z,80.82
2017-11-30T16:58:26.576Z,80.60
2017-11-30T17:00:54.191Z,80.54
2017-11-30T17:03:21.704Z,80.68
2017-11-30T17:05:49.187Z,81.08
2017-11-30T17:08:16.678Z,80.52
2017-11-30T17:10:44.222Z,80.16
2017-11-30T17:13:11.703Z,80.19
2017-11-30T17:15:39.196Z,80.35
2017-11-30T17:18:06.695Z,80.49
2017-11-30T17:20:34.196Z,80.49
2017-11-30T17:23:01.667Z,80.81
2017-11-30T17:25:29.186Z,80.04
2017-11-30T17:27:56.632Z,80.55
2017-11-30T17:30:24.110Z,80.51
2017-11-30T17:32:51.596Z,80.61
2017-11-30T17:35:19.159Z,80.62
2017-11-30T17:37:46.619Z,80.94
2017-11-30T17:40:14.332Z,81.43
2017-11-30T17:42:41.848Z,81.64
2017-11-30T17:45:09.332Z,82.02
2017-11-30T17:47:36.813Z,81.73
2017-11-30T17:50:04.300Z,81.92
2017-11-30T17:52:31.772Z,81.96
2017-11-30T17:54:59.328Z,82.22
2017-11-30T17:57:26.808Z,82.82
2017-11-30T17:59:55.051Z,83.13
2017-11-30T18:02:22.643Z,82.99
2017-11-30T18:04:50.140Z,82.54
2017-11-30T18:07:17.736Z,82.54
2017-11-30T18:09:45.283Z,82.26
2017-11-30T18:12:12.821Z,82.42
2017-11-30T18:14:40.385Z,82.24
2017-11-30T18:17:07.899Z,81.84
2017-11-30T18:19:35.670Z,81.83
2017-11-30T18:22:03.243Z,81.84
2017-11-30T18:24:30.736Z,81.74
2017-11-30T18:26:58.216Z,81.60
2017-11-30T18:29:25.754Z,81.69
2017-11-30T18:31:53.251Z,81.98
2017-11-30T18:34:20.754Z,82.08
2017-11-30T18:36:48.229Z,81.93
2017-11-30T18:39:15.731Z,81.54
2017-11-30T18:41:43.216Z,81.71
2017-11-30T18:44:10.700Z,80.99
2017-11-30T18:46:38.189Z,81.28
2017-11-30T18:49:05.656Z,81.46
2017-11-30T18:51:33.112Z,81.37
2017-11-30T18:54:00.677Z,81.65
2017-11-30T18:56:28.189Z,81.43
2017-11-30T18:58:55.729Z,81.15
2017-11-30T19:01:23.321Z,80.65
2017-11-30T19:03:50.969Z,79.94
2017-11-30T19:06:18.514Z,80.13
2017-11-30T19:08:46.007Z,80.05
2017-11-30T19:11:13.459Z,79.54
2017-11-30T19:13:41.641Z,79.18
2017-11-30T19:16:09.172Z,79.29
2017-11-30T19:18:36.664Z,79.43
2017-11-30T19:21:04.151Z,79.71
2017-11-30T19:23:31.608Z,79.80
2017-11-30T19:25:59.220Z,79.62
2017-11-30T19:28:26.885Z,79.27
2017-11-30T19:30:54.373Z,78.99
2017-11-30T19:33:22.900Z,78.81
2017-11-30T19:35:50.504Z,79.03
2017-11-30T19:38:18.240Z,79.17
2017-11-30T19:40:45.790Z,79.04
2017-11-30T19:43:13.292Z,78.46
2017-11-30T19:45:40.810Z,78.87
2017-11-30T19:48:08.331Z,79.24
2017-11-30T19:50:35.831Z,79.76
2017-11-30T19:53:03.308Z,79.03
2017-11-30T19:55:30.803Z,78.94
2017-11-30T19:57:58.340Z,79.59
2017-11-30T20:00:25.826Z,78.80
2017-11-30T20:02:54.182Z,78.19
2017-11-30T20:05:21.667Z,78.23
2017-11-30T20:07:49.161Z,78.64
2017-11-30T20:10:16.673Z,79.04
2017-11-30T20:12:44.128Z,78.78
2017-11-30T20:15:11.591Z,79.31
2017-11-30T20:17:39.101Z,78.88
2017-11-30T20:20:06.635Z,79.16
2017-11-30T20:22:34.139Z,78.45
2017-11-30T20:25:01.656Z,78.56
2017-11-30T20:27:29.130Z,78.05
2017-11-30T20:29:56.615Z,77.38
2017-11-30T20:32:24.103Z,77.38
2017-11-30T20:34:51.587Z,77.80
2017-11-30T20:37:19.122Z,77.75
2017-11-30T20:39:46.569Z,77.98
2017-11-30T20:42:14.027Z,77.30
2017-11-30T20:44:41.500Z,77.67
2017-11-30T20:47:08.955Z,77.21
2017-11-30T20:49:36.431Z,76.89
2017-11-30T20:52:03.930Z,77.39
2017-11-30T20:54:31.397Z,77.08
2017-11-30T20:56:58.934Z,77.71
2017-11-30T20:59:26.409Z,77.40
2017-11-30T21:01:54.824Z,77.85
2017-11-30T21:04:22.337Z,77.85
2017-11-30T21:06:49.866Z,77.29
2017-11-30T21:09:17.356Z,77.91
2017-11-30T21:11:44.859Z,77.53
2017-11-30T21:14:12.392Z,77.98
2017-11-30T21:16:39.903Z,78.24
2017-11-30T21:19:07.389Z,77.54
2017-11-30T21:21:34.852Z,77.71
2017-11-30T21:24:02.366Z,77.73
2017-11-30T21:26:29.844Z,78.09
2017-11-30T21:28:57.377Z,76.94
2017-11-30T21:31:24.937Z,76.87
2017-11-30T21:33:52.549Z,77.62
2017-11-30T21:36:20.097Z,77.98
2017-11-30T21:38:47.578Z,76.85
2017-11-30T21:41:15.057Z,77.00
2017-11-30T21:43:42.531Z,77.69
2017-11-30T21:46:10.008Z,77.83
2017-11-30T21:48:37.594Z,77.62
2017-11-30T21:51:05.247Z,77.40
2017-11-30T21:53:32.759Z,77.58
2017-11-30T21:56:00.308Z,77.85
2017-11-30T21:58:27.777Z,77.79
2017-11-30T22:00:55.246Z,77.84
2017-11-30T22:03:22.766Z,78.23
2017-11-30T22:05:50.226Z,78.08
2017-11-30T22:08:17.683Z,77.87
2017-11-30T22:10:45.176Z,77.51
2017-11-30T22:13:12.653Z,78.17
2017-11-30T22:15:40.147Z,78.08
2017-11-30T22:18:07.669Z,78.42
2017-11-30T22:20:35.131Z,78.42
2017-11-30T22:23:02.598Z,78.70
2017-11-30T22:25:30.095Z,79.25
2017-11-30T22:27:57.564Z,79.51
2017-11-30T22:30:25.056Z,79.84
2017-11-30T22:32:52.616Z,79.56
2017-11-30T22:35:20.118Z,79.15
2017-11-30T22:37:47.641Z,79.82
2017-11-30T22:40:15.190Z,79.88
2017-11-30T22:42:42.665Z,79.53
2017-11-30T22:45:10.124Z,79.43
2017-11-30T22:47:37.616Z,79.56
2017-11-30T22:50:05.154Z,79.91
2017-11-30T22:52:32.624Z,80.23
2017-11-30T22:55:00.107Z,79.45
2017-11-30T22:57:27.584Z,79.96
2017-11-30T22:59:55.064Z,79.98
2017-11-30T23:02:22.544Z,80.07
2017-11-30T23:04:50.015Z,79.86
2017-11-30T23:07:17.502Z,79.76
2017-11-30T23:09:44.980Z,79.95
2017-11-30T23:12:12.500Z,80.17
2017-11-30T23:14:39.956Z,79.88
2017-11-30T23:17:07.468Z,80.17
2017-11-30T23:19:34.936Z,80.38
2017-11-30T23:22:02.403Z,80.30
2017-11-30T23:24:29.907Z,80.43
2017-11-30T23:26:57.387Z,80.77
2017-11-30T23:29:24.855Z,80.13
2017-11-30T23:31:52.331Z,79.88
2017-11-30T23:34:19.812Z,80.19
2017-11-30T23:36:47.299Z,79.99
2017-11-30T23:39:14.777Z,80.74
2017-11-30T23:41:42.242Z,81.13
2017-11-30T23:44:09.726Z,80.83
2017-11-30T23:46:37.332Z,81.48
2017-11-30T23:49:04.867Z,81.58
2017-11-30T23:51:32.347Z,81.60
2017-11-30T23:53:59.884Z,81.55
2017-11-30T23:56:27.404Z,81.05
2017-11-30T23:58:54.869Z,80.35
